Overview Statistics Trail Chart Weather Telemetry Raw packets
 

This is the latest recevied weather packets stored in our database for station/object SQ1OHF-10. If no packets are shown the sender has not sent any weather packets the latest 10 day(s).

<< 1 2 3 4 >>
Time Temp. Humidity Pressure Rain* Wind** Luminosity Snow
1788400234 22.78° C 54% 1013 hPa - - - -
1788379626 23.33° C 55% 1013.2 hPa - - - -
1788376029 23.33° C 57% 1013.4 hPa - - - -
1788372443 23.33° C 58% 1013.2 hPa - - - -
1788348228 23.33° C 52% 1014.5 hPa - - - -
1788344631 23.33° C 53% 1014.6 hPa - - - -
1788341033 22.78° C 55% 1014.9 hPa - - - -
1788306910 22.78° C 51% 1013.4 hPa - - - -
1788303313 23.33° C 51% 1013.3 hPa - - - -
1788299715 23.33° C 52% 1013.3 hPa - - - -
1788296117 23.33° C 53% 1013 hPa - - - -
1788292520 23.33° C 52% 1012.8 hPa - - - -
1788288921 23.89° C 52% 1012.6 hPa - - - -
1788285324 23.89° C 54% 1012 hPa - - - -
1788281728 23.33° C 55% 1012 hPa - - - -
1788278132 23.89° C 49% 1011.3 hPa - - - -
1788274535 23.89° C 50% 1010.9 hPa - - - -
1788270938 23.33° C 52% 1010.6 hPa - - - -
1788192170 24.44° C 51% 1004.7 hPa - - - -
1788188573 24.44° C 52% 1004.8 hPa - - - -
1788184977 24.44° C 54% 1005.1 hPa - - - -
1788181381 24.44° C 54% 1005.4 hPa - - - -
1788177784 23.89° C 52% 1005.7 hPa - - - -
1788170596 23.89° C 52% 1006.7 hPa - - - -
1788167001 23.33° C 54% 1006.6 hPa - - - -

* Rain since midnight (hover to see other rain measurements)
** Current wind speed in m/s (hover to see current wind gust speed)